createdAt,value
2018-01-24T00:00:37.383Z,10.44
2018-01-24T00:03:12.401Z,10.43
2018-01-24T00:05:47.379Z,10.42
2018-01-24T00:08:22.076Z,10.40
2018-01-24T00:10:57.243Z,10.37
2018-01-24T00:13:32.245Z,10.34
2018-01-24T00:16:07.386Z,10.40
2018-01-24T00:18:42.044Z,10.41
2018-01-24T00:21:17.170Z,10.42
2018-01-24T00:23:52.430Z,10.43
2018-01-24T00:26:27.393Z,10.46
2018-01-24T00:29:02.341Z,10.47
2018-01-24T00:31:37.442Z,10.45
2018-01-24T00:34:12.364Z,10.49
2018-01-24T00:36:47.307Z,10.49
2018-01-24T00:39:22.519Z,10.51
2018-01-24T00:41:57.503Z,10.55
2018-01-24T00:44:32.412Z,10.58
2018-01-24T00:47:07.724Z,10.60
2018-01-24T00:49:42.382Z,10.68
2018-01-24T00:52:17.657Z,10.72
2018-01-24T00:54:52.643Z,10.73
2018-01-24T00:57:27.619Z,10.74
2018-01-24T01:00:02.727Z,10.78
2018-01-24T01:02:37.532Z,10.81
2018-01-24T01:05:12.590Z,10.84
2018-01-24T01:07:47.674Z,10.89
2018-01-24T01:10:24.267Z,10.87
2018-01-24T01:12:59.340Z,10.83
2018-01-24T01:15:33.826Z,10.86
2018-01-24T01:18:08.717Z,10.88
2018-01-24T01:20:43.735Z,10.88
2018-01-24T01:23:19.507Z,10.89
2018-01-24T01:25:54.487Z,10.87
2018-01-24T01:28:29.396Z,10.89
2018-01-24T01:31:04.427Z,10.89
2018-01-24T01:33:39.782Z,10.93
2018-01-24T01:36:14.894Z,10.93
2018-01-24T01:38:50.261Z,10.93
2018-01-24T01:41:25.365Z,10.96
2018-01-24T01:44:00.250Z,10.97
2018-01-24T01:46:35.098Z,11.00
2018-01-24T01:49:10.355Z,11.03
2018-01-24T01:51:45.259Z,11.06
2018-01-24T01:54:20.291Z,11.08
2018-01-24T01:56:55.191Z,11.07
2018-01-24T01:59:30.196Z,11.12
2018-01-24T02:02:06.770Z,11.15
2018-01-24T02:04:41.664Z,11.16
2018-01-24T02:07:16.725Z,11.15
2018-01-24T02:09:51.394Z,11.18
2018-01-24T02:12:26.496Z,11.20
2018-01-24T02:15:01.740Z,11.20
2018-01-24T02:17:36.426Z,11.15
2018-01-24T02:20:11.546Z,11.12
2018-01-24T02:22:46.454Z,11.13
2018-01-24T02:25:21.722Z,11.12
2018-01-24T02:27:57.005Z,11.15
2018-01-24T02:30:31.982Z,11.13
2018-01-24T02:33:07.087Z,11.10
2018-01-24T02:35:42.209Z,11.10
2018-01-24T02:38:28.608Z,11.12
2018-01-24T02:41:03.532Z,11.13
2018-01-24T02:43:38.681Z,11.09
2018-01-24T02:46:13.092Z,11.06
2018-01-24T02:48:47.720Z,11.05
2018-01-24T02:51:22.615Z,11.04
2018-01-24T02:53:57.716Z,10.99
2018-01-24T02:56:33.182Z,11.00
2018-01-24T02:59:08.378Z,11.02
2018-01-24T03:01:43.191Z,11.02
2018-01-24T03:04:18.254Z,11.06
2018-01-24T03:06:53.482Z,11.05
2018-01-24T03:09:28.651Z,11.10
2018-01-24T03:12:03.823Z,11.14
2018-01-24T03:14:39.050Z,11.15
2018-01-24T03:17:13.930Z,11.16
2018-01-24T03:19:49.107Z,11.17
2018-01-24T03:22:24.102Z,11.16
2018-01-24T03:24:59.691Z,11.19
2018-01-24T03:27:34.431Z,11.19
2018-01-24T03:30:09.622Z,11.22
2018-01-24T03:32:44.589Z,11.26
2018-01-24T03:35:19.779Z,11.25
2018-01-24T03:37:54.344Z,11.31
2018-01-24T03:40:29.239Z,11.29
2018-01-24T03:43:04.731Z,11.32
2018-01-24T03:45:39.725Z,11.34
2018-01-24T03:48:14.811Z,11.37
2018-01-24T03:50:49.715Z,11.37
2018-01-24T03:53:24.718Z,11.38
2018-01-24T03:55:59.401Z,11.39
2018-01-24T03:58:34.886Z,11.40
2018-01-24T04:01:10.071Z,11.37
2018-01-24T04:03:44.547Z,11.41
2018-01-24T04:06:20.050Z,11.44
2018-01-24T04:08:54.800Z,11.49
2018-01-24T04:11:30.081Z,11.53
2018-01-24T04:14:05.247Z,11.54
2018-01-24T04:16:39.898Z,11.60
2018-01-24T04:19:14.305Z,11.62
2018-01-24T04:21:49.127Z,11.64
2018-01-24T04:24:24.424Z,11.69
2018-01-24T04:26:59.105Z,11.72
2018-01-24T04:29:33.771Z,11.79
2018-01-24T04:32:08.863Z,11.83
2018-01-24T04:34:44.095Z,11.82
2018-01-24T04:37:19.009Z,11.86
2018-01-24T04:39:54.328Z,11.89
2018-01-24T04:42:29.408Z,11.87
2018-01-24T04:45:04.787Z,11.85
2018-01-24T04:47:39.623Z,11.88
2018-01-24T04:50:14.866Z,11.86
2018-01-24T04:52:49.854Z,11.85
2018-01-24T04:55:24.790Z,11.90
2018-01-24T04:57:59.363Z,11.91
2018-01-24T05:00:34.082Z,11.92
2018-01-24T05:03:09.236Z,11.92
2018-01-24T05:05:44.433Z,11.91
2018-01-24T05:08:19.121Z,11.89
2018-01-24T05:10:53.692Z,11.92
2018-01-24T05:13:28.702Z,11.92
2018-01-24T05:16:03.854Z,11.93
2018-01-24T05:18:38.710Z,11.94
2018-01-24T05:21:13.089Z,11.96
2018-01-24T05:23:48.357Z,11.98
2018-01-24T05:26:23.510Z,11.97
2018-01-24T05:28:59.030Z,11.97
2018-01-24T05:31:33.928Z,11.97
2018-01-24T05:34:09.231Z,12.00
2018-01-24T05:36:44.214Z,12.00
2018-01-24T05:39:19.622Z,12.02
2018-01-24T05:41:54.054Z,12.00
2018-01-24T05:44:28.934Z,11.96
2018-01-24T05:47:04.135Z,11.93
2018-01-24T05:49:39.229Z,11.94
2018-01-24T05:52:15.153Z,11.93
2018-01-24T05:54:49.630Z,11.93
2018-01-24T05:57:24.543Z,11.95
2018-01-24T05:59:59.967Z,11.93
2018-01-24T06:02:35.086Z,11.92
2018-01-24T06:05:10.148Z,11.87
2018-01-24T06:07:45.158Z,11.86
2018-01-24T06:10:20.357Z,11.85
2018-01-24T06:12:55.249Z,11.82
2018-01-24T06:15:30.314Z,11.82
2018-01-24T06:18:05.240Z,11.85
2018-01-24T06:20:40.010Z,11.86
2018-01-24T06:23:15.300Z,11.89
2018-01-24T06:25:50.422Z,11.85
2018-01-24T06:28:25.922Z,11.89
2018-01-24T06:31:01.263Z,11.93
2018-01-24T06:33:36.465Z,11.90
2018-01-24T06:36:11.194Z,11.93
2018-01-24T06:38:46.120Z,11.95
2018-01-24T06:41:20.555Z,11.95
2018-01-24T06:43:55.273Z,11.97
2018-01-24T06:46:30.501Z,12.00
2018-01-24T06:49:05.288Z,11.99
2018-01-24T06:51:40.311Z,11.98
2018-01-24T06:54:15.242Z,12.03
2018-01-24T06:56:50.192Z,12.05
2018-01-24T06:59:25.186Z,12.05
2018-01-24T07:02:00.326Z,12.04
2018-01-24T07:04:35.067Z,12.03
2018-01-24T07:07:09.829Z,12.02
2018-01-24T07:09:45.186Z,12.01
2018-01-24T07:12:31.496Z,12.04
2018-01-24T07:15:07.586Z,12.01
2018-01-24T07:17:43.153Z,11.98
2018-01-24T07:20:18.360Z,11.96
2018-01-24T07:22:53.381Z,11.94
2018-01-24T07:25:28.742Z,11.96
2018-01-24T07:28:04.292Z,11.97
2018-01-24T07:30:39.391Z,11.95
2018-01-24T07:33:14.502Z,11.96
2018-01-24T07:35:49.254Z,11.98
2018-01-24T07:38:24.770Z,12.00
2018-01-24T07:40:59.511Z,12.01
2018-01-24T07:43:34.430Z,12.05
2018-01-24T07:46:09.604Z,12.09
2018-01-24T07:48:46.135Z,12.12
2018-01-24T07:51:21.346Z,12.15
2018-01-24T07:53:56.226Z,12.19
2018-01-24T07:56:31.415Z,12.21
2018-01-24T07:59:07.518Z,12.21
2018-01-24T08:01:42.255Z,12.26
2018-01-24T08:04:17.134Z,12.30
2018-01-24T08:06:52.029Z,12.29
2018-01-24T08:09:27.154Z,12.34
2018-01-24T08:12:02.485Z,12.36
2018-01-24T08:14:37.652Z,12.36
2018-01-24T08:17:12.868Z,12.35
2018-01-24T08:19:47.774Z,12.36
2018-01-24T08:22:22.818Z,12.40
2018-01-24T08:24:58.006Z,12.45
2018-01-24T08:27:32.569Z,12.48
2018-01-24T08:30:07.882Z,12.51
2018-01-24T08:32:43.352Z,12.57
2018-01-24T08:35:18.634Z,12.59
2018-01-24T08:37:53.504Z,12.61
2018-01-24T08:40:28.806Z,12.62
2018-01-24T08:43:04.307Z,12.63
2018-01-24T08:45:39.506Z,12.65
2018-01-24T08:48:14.376Z,12.65
2018-01-24T08:50:48.846Z,12.67
2018-01-24T08:53:23.739Z,12.71
2018-01-24T08:55:58.718Z,12.71
2018-01-24T08:58:34.119Z,12.71
2018-01-24T09:01:26.130Z,12.68
2018-01-24T09:04:18.112Z,12.70
2018-01-24T09:07:10.023Z,12.68
2018-01-24T09:10:01.121Z,12.71
2018-01-24T09:12:52.216Z,12.78
2018-01-24T09:15:43.363Z,12.81
2018-01-24T09:18:35.370Z,12.83
2018-01-24T09:21:27.210Z,12.86
2018-01-24T09:24:19.562Z,12.83
2018-01-24T09:26:54.628Z,12.80
2018-01-24T09:29:29.638Z,12.84
2018-01-24T09:32:04.690Z,12.92
2018-01-24T09:34:39.707Z,12.93
2018-01-24T09:37:14.869Z,12.96
2018-01-24T09:39:49.605Z,13.02
2018-01-24T09:42:25.059Z,13.03
2018-01-24T09:44:59.802Z,13.05
2018-01-24T09:47:34.737Z,13.09
2018-01-24T09:50:09.916Z,13.13
2018-01-24T09:52:45.088Z,13.13
2018-01-24T09:55:20.722Z,13.19
2018-01-24T09:57:55.629Z,13.24
2018-01-24T10:00:30.636Z,13.28
2018-01-24T10:03:05.661Z,13.30
2018-01-24T10:05:40.718Z,13.30
2018-01-24T10:08:15.779Z,13.33
2018-01-24T10:10:50.714Z,13.39
2018-01-24T10:13:25.447Z,13.42
2018-01-24T10:16:00.766Z,13.40
2018-01-24T10:18:35.774Z,13.39
2018-01-24T10:21:11.235Z,13.42
2018-01-24T10:23:46.135Z,13.41
2018-01-24T10:26:21.102Z,13.42
2018-01-24T10:28:56.076Z,13.40
2018-01-24T10:31:31.048Z,13.43
2018-01-24T10:34:06.176Z,13.48
2018-01-24T10:36:41.246Z,13.46
2018-01-24T10:39:16.716Z,13.50
2018-01-24T10:41:51.767Z,13.52
2018-01-24T10:44:26.851Z,13.50
2018-01-24T10:47:02.034Z,13.57
2018-01-24T10:49:36.695Z,13.57
2018-01-24T10:52:11.798Z,13.60
2018-01-24T10:54:47.192Z,13.60
2018-01-24T10:57:22.362Z,13.57
2018-01-24T10:59:56.974Z,13.59
2018-01-24T11:02:32.114Z,13.61
2018-01-24T11:05:08.330Z,13.62
2018-01-24T11:07:43.136Z,13.65
2018-01-24T11:10:18.039Z,13.69
2018-01-24T11:12:53.130Z,13.70
2018-01-24T11:15:28.074Z,13.72
2018-01-24T11:18:02.438Z,13.75
2018-01-24T11:20:37.901Z,13.80
2018-01-24T11:23:12.931Z,13.84
2018-01-24T11:25:47.882Z,13.84
2018-01-24T11:28:22.958Z,13.81
2018-01-24T11:30:58.160Z,13.81
2018-01-24T11:33:33.018Z,13.80
2018-01-24T11:36:08.412Z,13.83
2018-01-24T11:38:43.143Z,13.84
2018-01-24T11:41:18.154Z,13.82
2018-01-24T11:43:53.063Z,13.87
2018-01-24T11:46:28.022Z,13.93
2018-01-24T11:49:03.213Z,13.97
2018-01-24T11:51:38.123Z,14.04
2018-01-24T11:54:13.323Z,14.04
2018-01-24T11:56:48.448Z,14.10
2018-01-24T11:59:24.352Z,14.17
2018-01-24T12:01:59.903Z,14.24
2018-01-24T12:04:34.480Z,14.23
2018-01-24T12:07:09.761Z,14.27
2018-01-24T12:09:44.602Z,14.31
2018-01-24T12:12:19.622Z,14.39
2018-01-24T12:14:55.039Z,14.44
2018-01-24T12:17:30.301Z,14.52
2018-01-24T12:20:05.515Z,14.60
2018-01-24T12:22:40.157Z,14.69
2018-01-24T12:25:15.206Z,14.77
2018-01-24T12:27:50.254Z,14.85
2018-01-24T12:30:25.329Z,14.85
2018-01-24T12:33:00.364Z,14.93
2018-01-24T12:35:35.572Z,14.96
2018-01-24T12:38:10.641Z,14.95
2018-01-24T12:40:45.508Z,14.92
2018-01-24T12:43:20.358Z,14.93
2018-01-24T12:45:55.486Z,14.97
2018-01-24T12:48:30.384Z,14.91
2018-01-24T12:51:05.402Z,14.89
2018-01-24T12:53:40.140Z,14.96
2018-01-24T12:56:15.150Z,14.98
2018-01-24T12:58:49.723Z,14.95
2018-01-24T13:01:25.250Z,14.92
2018-01-24T13:04:00.357Z,14.93
2018-01-24T13:06:35.041Z,14.93
2018-01-24T13:09:09.799Z,14.89
2018-01-24T13:11:44.780Z,14.87
2018-01-24T13:14:20.121Z,14.85
2018-01-24T13:16:55.228Z,14.88
2018-01-24T13:19:30.236Z,14.90
2018-01-24T13:22:05.296Z,14.89
2018-01-24T13:24:40.384Z,14.91
2018-01-24T13:27:14.999Z,14.88
2018-01-24T13:29:50.337Z,14.91
2018-01-24T13:32:25.351Z,14.90
2018-01-24T13:35:00.460Z,14.92
2018-01-24T13:37:35.781Z,14.94
2018-01-24T13:40:10.569Z,14.91
2018-01-24T13:42:45.694Z,14.95
2018-01-24T13:45:20.795Z,14.93
2018-01-24T13:47:55.670Z,14.94
2018-01-24T13:50:30.374Z,14.94
2018-01-24T13:53:05.627Z,14.92
2018-01-24T13:55:40.440Z,14.93
2018-01-24T13:58:15.870Z,14.94
2018-01-24T14:00:50.546Z,14.95
2018-01-24T14:03:25.753Z,14.96
2018-01-24T14:06:01.031Z,14.93
2018-01-24T14:08:36.360Z,14.93
2018-01-24T14:11:11.460Z,14.93
2018-01-24T14:13:46.526Z,14.93
2018-01-24T14:16:21.685Z,14.96
2018-01-24T14:18:56.562Z,14.93
2018-01-24T14:21:31.751Z,14.95
2018-01-24T14:24:06.445Z,14.97
2018-01-24T14:26:41.497Z,14.99
2018-01-24T14:29:16.644Z,14.98
2018-01-24T14:31:51.795Z,14.98
2018-01-24T14:34:26.542Z,14.99
2018-01-24T14:37:01.479Z,14.98
2018-01-24T14:39:36.423Z,14.98
2018-01-24T14:42:11.675Z,15.00
2018-01-24T14:44:46.541Z,14.99
2018-01-24T14:47:21.611Z,14.96
2018-01-24T14:49:56.607Z,14.97
2018-01-24T14:52:31.542Z,14.99
2018-01-24T14:55:07.022Z,14.95
2018-01-24T14:57:41.542Z,14.96
2018-01-24T15:00:16.478Z,14.98
2018-01-24T15:02:51.680Z,15.01
2018-01-24T15:05:26.931Z,14.95
2018-01-24T15:08:01.818Z,14.96
2018-01-24T15:10:36.886Z,14.97
2018-01-24T15:13:12.034Z,14.99
2018-01-24T15:15:47.051Z,14.96
2018-01-24T15:18:22.556Z,14.92
2018-01-24T15:20:57.677Z,14.94
2018-01-24T15:23:32.626Z,14.90
2018-01-24T15:26:08.683Z,14.89
2018-01-24T15:28:43.591Z,14.89
2018-01-24T15:31:18.782Z,14.89
2018-01-24T15:33:53.658Z,14.87
2018-01-24T15:36:28.048Z,14.89
2018-01-24T15:39:03.210Z,14.82
2018-01-24T15:41:38.579Z,14.83
2018-01-24T15:44:13.646Z,14.83
2018-01-24T15:46:48.687Z,14.81
2018-01-24T15:49:23.767Z,14.81
2018-01-24T15:51:58.734Z,14.79
2018-01-24T15:54:33.737Z,14.80
2018-01-24T15:57:09.018Z,14.79
2018-01-24T15:59:43.719Z,14.76
2018-01-24T16:02:18.714Z,14.73
2018-01-24T16:04:53.718Z,14.77
2018-01-24T16:07:28.626Z,14.76
2018-01-24T16:10:03.552Z,14.72
2018-01-24T16:12:38.757Z,14.72
2018-01-24T16:15:14.009Z,14.72
2018-01-24T16:17:49.002Z,14.70
2018-01-24T16:20:24.070Z,14.69
2018-01-24T16:22:59.035Z,14.66
2018-01-24T16:25:33.842Z,14.64
2018-01-24T16:28:08.888Z,14.62
2018-01-24T16:30:44.146Z,14.63
2018-01-24T16:33:19.715Z,14.63
2018-01-24T16:35:54.599Z,14.63
2018-01-24T16:38:29.774Z,14.61
2018-01-24T16:41:04.798Z,14.56
2018-01-24T16:43:39.757Z,14.54
2018-01-24T16:46:14.702Z,14.51
2018-01-24T16:48:49.970Z,14.49
2018-01-24T16:51:25.303Z,14.42
2018-01-24T16:54:00.387Z,14.34
2018-01-24T16:56:35.175Z,14.27
2018-01-24T16:59:10.178Z,14.25
2018-01-24T17:01:45.272Z,14.30
2018-01-24T17:04:20.361Z,14.28
2018-01-24T17:06:55.019Z,14.23
2018-01-24T17:09:30.394Z,14.26
2018-01-24T17:12:05.737Z,14.30
2018-01-24T17:14:40.904Z,14.28
2018-01-24T17:17:16.061Z,14.28
2018-01-24T17:19:50.931Z,14.25
2018-01-24T17:22:25.911Z,14.21
2018-01-24T17:25:00.939Z,14.16
2018-01-24T17:27:36.034Z,14.21
2018-01-24T17:30:11.218Z,14.20
2018-01-24T17:32:46.210Z,14.16
2018-01-24T17:35:21.188Z,14.16
2018-01-24T17:37:56.186Z,14.15
2018-01-24T17:40:31.128Z,14.17
2018-01-24T17:43:06.539Z,14.15
2018-01-24T17:45:41.810Z,14.18
2018-01-24T17:48:17.246Z,14.16
2018-01-24T17:50:51.975Z,14.20
2018-01-24T17:53:26.612Z,14.23
2018-01-24T17:56:01.416Z,14.27
2018-01-24T17:58:36.374Z,14.27
2018-01-24T18:01:11.274Z,14.32
2018-01-24T18:03:46.050Z,14.34
2018-01-24T18:06:21.081Z,14.36
2018-01-24T18:08:55.977Z,14.32
2018-01-24T18:11:30.834Z,14.34
2018-01-24T18:14:05.906Z,14.35
2018-01-24T18:16:40.956Z,14.35
2018-01-24T18:19:16.580Z,14.34
2018-01-24T18:21:52.189Z,14.32
2018-01-24T18:24:27.263Z,14.31
2018-01-24T18:27:02.362Z,14.30
2018-01-24T18:29:37.361Z,14.34
2018-01-24T18:32:12.918Z,14.37
2018-01-24T18:34:48.008Z,14.36
2018-01-24T18:37:23.472Z,14.39
2018-01-24T18:39:58.361Z,14.39
2018-01-24T18:42:33.510Z,14.37
2018-01-24T18:45:09.471Z,14.37
2018-01-24T18:47:44.097Z,14.37
2018-01-24T18:50:19.066Z,14.35
2018-01-24T18:52:54.326Z,14.34
2018-01-24T18:55:29.602Z,14.33
2018-01-24T18:58:05.106Z,14.35
2018-01-24T19:00:39.724Z,14.34
2018-01-24T19:03:15.449Z,14.35
2018-01-24T19:05:50.195Z,14.33
2018-01-24T19:08:25.414Z,14.32
2018-01-24T19:11:00.435Z,14.35
2018-01-24T19:13:35.132Z,14.37
2018-01-24T19:16:10.586Z,14.35
2018-01-24T19:18:45.562Z,14.34
2018-01-24T19:21:23.414Z,14.29
2018-01-24T19:23:57.747Z,14.27
2018-01-24T19:26:32.623Z,14.23
2018-01-24T19:29:07.502Z,14.20
2018-01-24T19:31:42.374Z,14.16
2018-01-24T19:34:17.422Z,14.13
2018-01-24T19:36:52.531Z,14.13
2018-01-24T19:39:27.655Z,14.12
2018-01-24T19:42:02.854Z,14.15
2018-01-24T19:44:38.325Z,14.10
2018-01-24T19:47:13.602Z,14.04
2018-01-24T19:49:48.342Z,13.98
2018-01-24T19:52:23.544Z,13.97
2018-01-24T19:54:58.029Z,13.96
2018-01-24T19:57:33.210Z,13.94
2018-01-24T20:00:09.042Z,13.93
2018-01-24T20:02:43.910Z,13.95
2018-01-24T20:05:19.471Z,13.96
2018-01-24T20:07:54.220Z,13.94
2018-01-24T20:10:29.195Z,13.91
2018-01-24T20:13:04.234Z,13.88
2018-01-24T20:15:38.921Z,13.87
2018-01-24T20:18:14.383Z,13.82
2018-01-24T20:20:49.234Z,13.82
2018-01-24T20:23:24.249Z,13.85
2018-01-24T20:25:59.343Z,13.85
2018-01-24T20:28:34.338Z,13.85
2018-01-24T20:31:09.770Z,13.86
2018-01-24T20:33:44.481Z,13.80
2018-01-24T20:36:19.369Z,13.81
2018-01-24T20:38:54.553Z,13.76
2018-01-24T20:41:29.580Z,13.72
2018-01-24T20:44:04.440Z,13.73
2018-01-24T20:46:39.319Z,13.71
2018-01-24T20:49:14.681Z,13.69
2018-01-24T20:51:49.795Z,13.68
2018-01-24T20:54:25.050Z,13.71
2018-01-24T20:57:00.292Z,13.69
2018-01-24T20:59:35.318Z,13.65
2018-01-24T21:02:10.296Z,13.67
2018-01-24T21:04:45.371Z,13.63
2018-01-24T21:07:20.118Z,13.61
2018-01-24T21:09:55.549Z,13.58
2018-01-24T21:12:31.229Z,13.59
2018-01-24T21:15:06.554Z,13.60
2018-01-24T21:17:41.439Z,13.58
2018-01-24T21:20:16.650Z,13.63
2018-01-24T21:22:51.477Z,13.67
2018-01-24T21:25:26.508Z,13.64
2018-01-24T21:28:01.716Z,13.61
2018-01-24T21:30:47.965Z,13.62
2018-01-24T21:33:34.026Z,13.67
2018-01-24T21:39:02.235Z,13.66
2018-01-24T21:41:37.554Z,13.61
2018-01-24T21:44:12.870Z,13.64
2018-01-24T21:46:47.735Z,13.62
2018-01-24T21:49:22.782Z,13.66
2018-01-24T21:51:57.793Z,13.67
2018-01-24T21:54:32.742Z,13.70
2018-01-24T21:57:07.880Z,13.72
2018-01-24T21:59:42.930Z,13.70
2018-01-24T22:02:18.538Z,13.72
2018-01-24T22:04:53.201Z,13.70
2018-01-24T22:07:28.275Z,13.66
2018-01-24T22:10:03.686Z,13.65
2018-01-24T22:12:38.715Z,13.60
2018-01-24T22:15:13.494Z,13.56
2018-01-24T22:17:49.223Z,13.60
2018-01-24T22:20:24.679Z,13.64
2018-01-24T22:22:59.902Z,13.58
2018-01-24T22:25:34.823Z,13.58
2018-01-24T22:28:10.143Z,13.55
2018-01-24T22:30:44.829Z,13.58
2018-01-24T22:33:19.899Z,13.59
2018-01-24T22:35:54.857Z,13.58
2018-01-24T22:38:30.069Z,13.55
2018-01-24T22:41:05.654Z,13.50
2018-01-24T22:43:40.858Z,13.51
2018-01-24T22:46:16.006Z,13.53
2018-01-24T22:48:51.339Z,13.54
2018-01-24T22:51:26.243Z,13.54
2018-01-24T22:54:01.294Z,13.54
2018-01-24T22:56:36.658Z,13.57
2018-01-24T22:59:11.680Z,13.57
2018-01-24T23:01:46.746Z,13.57
2018-01-24T23:04:22.059Z,13.56
2018-01-24T23:06:56.906Z,13.57
2018-01-24T23:09:31.934Z,13.57
2018-01-24T23:12:07.087Z,13.60
2018-01-24T23:14:41.884Z,13.56
2018-01-24T23:17:16.840Z,13.56
2018-01-24T23:19:51.866Z,13.61
2018-01-24T23:22:27.162Z,13.62
2018-01-24T23:25:01.930Z,13.59
2018-01-24T23:27:36.827Z,13.60
2018-01-24T23:30:11.951Z,13.61
2018-01-24T23:32:46.773Z,13.60
2018-01-24T23:35:22.151Z,13.65
2018-01-24T23:37:57.102Z,13.67
2018-01-24T23:40:31.814Z,13.53
2018-01-24T23:43:07.011Z,13.52
2018-01-24T23:45:42.195Z,13.46
2018-01-24T23:48:17.479Z,13.47
2018-01-24T23:50:52.827Z,13.50
2018-01-24T23:53:28.085Z,13.50
2018-01-24T23:56:02.869Z,13.53
2018-01-24T23:58:37.421Z,13.50
